sensor_id;sensor_type;location;lat;lon;timestamp;P1;durP1;ratioP1;P2;durP2;ratioP2
47413;SDS011;33163;0.000;0.000;2023-06-04T00:00:30;1.67;;;0.65;;
47413;SDS011;33163;0.000;0.000;2023-06-04T00:02:57;1.00;;;0.90;;
47413;SDS011;33163;0.000;0.000;2023-06-04T00:05:24;4.80;;;1.10;;
47413;SDS011;33163;0.000;0.000;2023-06-04T00:07:50;1.48;;;0.80;;
47413;SDS011;33163;0.000;0.000;2023-06-04T00:10:18;2.40;;;1.42;;
47413;SDS011;33163;0.000;0.000;2023-06-04T00:12:45;2.05;;;1.00;;
47413;SDS011;33163;0.000;0.000;2023-06-04T00:15:12;1.85;;;1.20;;
47413;SDS011;33163;0.000;0.000;2023-06-04T00:17:41;2.65;;;1.05;;
47413;SDS011;33163;0.000;0.000;2023-06-04T00:20:08;3.55;;;1.20;;
47413;SDS011;33163;0.000;0.000;2023-06-04T00:22:36;1.58;;;0.70;;
47413;SDS011;33163;0.000;0.000;2023-06-04T00:25:06;2.42;;;1.05;;
47413;SDS011;33163;0.000;0.000;2023-06-04T00:27:35;2.05;;;1.10;;
47413;SDS011;33163;0.000;0.000;2023-06-04T00:30:02;1.00;;;0.90;;
47413;SDS011;33163;0.000;0.000;2023-06-04T00:32:29;2.13;;;0.90;;
47413;SDS011;33163;0.000;0.000;2023-06-04T00:34:56;2.33;;;0.95;;
47413;SDS011;33163;0.000;0.000;2023-06-04T00:37:23;1.45;;;1.00;;
47413;SDS011;33163;0.000;0.000;2023-06-04T00:39:51;3.13;;;0.80;;
47413;SDS011;33163;0.000;0.000;2023-06-04T00:42:18;2.88;;;0.90;;
47413;SDS011;33163;0.000;0.000;2023-06-04T00:44:46;1.15;;;0.75;;
47413;SDS011;33163;0.000;0.000;2023-06-04T00:47:13;1.38;;;1.00;;
47413;SDS011;33163;0.000;0.000;2023-06-04T00:49:41;1.27;;;1.05;;
47413;SDS011;33163;0.000;0.000;2023-06-04T00:52:08;2.65;;;1.00;;
47413;SDS011;33163;0.000;0.000;2023-06-04T00:54:35;1.85;;;1.00;;
47413;SDS011;33163;0.000;0.000;2023-06-04T00:57:03;1.98;;;1.00;;
47413;SDS011;33163;0.000;0.000;2023-06-04T00:59:30;2.38;;;1.30;;
47413;SDS011;33163;0.000;0.000;2023-06-04T01:02:00;1.90;;;0.93;;
47413;SDS011;33163;0.000;0.000;2023-06-04T01:04:30;0.95;;;0.80;;
47413;SDS011;33163;0.000;0.000;2023-06-04T01:07:00;1.42;;;0.70;;
47413;SDS011;33163;0.000;0.000;2023-06-04T01:09:29;1.02;;;0.77;;
47413;SDS011;33163;0.000;0.000;2023-06-04T01:11:56;1.35;;;0.70;;
47413;SDS011;33163;0.000;0.000;2023-06-04T01:14:24;2.42;;;0.90;;
47413;SDS011;33163;0.000;0.000;2023-06-04T01:16:52;3.90;;;1.10;;
47413;SDS011;33163;0.000;0.000;2023-06-04T01:19:39;1.40;;;0.90;;
47413;SDS011;33163;0.000;0.000;2023-06-04T01:22:27;0.90;;;0.85;;
47413;SDS011;33163;0.000;0.000;2023-06-04T01:25:02;1.20;;;0.80;;
47413;SDS011;33163;0.000;0.000;2023-06-04T01:27:30;2.85;;;0.93;;
47413;SDS011;33163;0.000;0.000;2023-06-04T01:29:57;0.77;;;0.70;;
47413;SDS011;33163;0.000;0.000;2023-06-04T01:32:25;1.58;;;0.85;;
47413;SDS011;33163;0.000;0.000;2023-06-04T01:34:55;1.48;;;0.98;;
47413;SDS011;33163;0.000;0.000;2023-06-04T01:37:21;1.17;;;0.98;;
47413;SDS011;33163;0.000;0.000;2023-06-04T01:39:48;1.75;;;0.85;;
47413;SDS011;33163;0.000;0.000;2023-06-04T01:42:15;3.45;;;1.02;;
47413;SDS011;33163;0.000;0.000;2023-06-04T01:44:42;1.83;;;0.90;;
47413;SDS011;33163;0.000;0.000;2023-06-04T01:47:09;2.83;;;0.95;;
47413;SDS011;33163;0.000;0.000;2023-06-04T01:49:35;1.05;;;0.70;;
47413;SDS011;33163;0.000;0.000;2023-06-04T01:52:04;1.17;;;0.82;;
47413;SDS011;33163;0.000;0.000;2023-06-04T01:54:31;1.27;;;0.75;;
47413;SDS011;33163;0.000;0.000;2023-06-04T01:56:58;0.95;;;0.93;;
47413;SDS011;33163;0.000;0.000;2023-06-04T01:59:25;1.00;;;0.90;;
47413;SDS011;33163;0.000;0.000;2023-06-04T02:01:52;2.97;;;0.80;;
47413;SDS011;33163;0.000;0.000;2023-06-04T02:04:19;2.47;;;1.10;;
47413;SDS011;33163;0.000;0.000;2023-06-04T02:06:46;3.20;;;0.70;;
47413;SDS011;33163;0.000;0.000;2023-06-04T02:09:15;0.60;;;0.60;;
47413;SDS011;33163;0.000;0.000;2023-06-04T02:11:42;3.05;;;0.80;;
47413;SDS011;33163;0.000;0.000;2023-06-04T02:14:08;1.52;;;0.95;;
47413;SDS011;33163;0.000;0.000;2023-06-04T02:16:35;1.67;;;0.80;;
47413;SDS011;33163;0.000;0.000;2023-06-04T02:19:03;1.38;;;1.20;;
47413;SDS011;33163;0.000;0.000;2023-06-04T02:21:29;1.58;;;1.17;;
47413;SDS011;33163;0.000;0.000;2023-06-04T02:23:56;1.60;;;1.08;;
47413;SDS011;33163;0.000;0.000;2023-06-04T02:26:24;1.30;;;1.00;;
47413;SDS011;33163;0.000;0.000;2023-06-04T02:28:51;1.67;;;0.75;;
47413;SDS011;33163;0.000;0.000;2023-06-04T02:31:18;2.20;;;0.98;;
47413;SDS011;33163;0.000;0.000;2023-06-04T02:33:46;2.00;;;1.10;;
47413;SDS011;33163;0.000;0.000;2023-06-04T02:36:12;1.00;;;0.80;;
47413;SDS011;33163;0.000;0.000;2023-06-04T02:38:40;2.17;;;0.90;;
47413;SDS011;33163;0.000;0.000;2023-06-04T02:41:07;1.70;;;0.73;;
47413;SDS011;33163;0.000;0.000;2023-06-04T02:43:36;1.42;;;1.00;;
47413;SDS011;33163;0.000;0.000;2023-06-04T02:46:02;1.30;;;0.88;;
47413;SDS011;33163;0.000;0.000;2023-06-04T02:48:31;1.60;;;0.80;;
47413;SDS011;33163;0.000;0.000;2023-06-04T02:50:58;2.35;;;1.10;;
47413;SDS011;33163;0.000;0.000;2023-06-04T02:53:24;2.38;;;0.90;;
47413;SDS011;33163;0.000;0.000;2023-06-04T02:55:51;1.50;;;1.30;;
47413;SDS011;33163;0.000;0.000;2023-06-04T02:58:18;0.80;;;0.73;;
47413;SDS011;33163;0.000;0.000;2023-06-04T03:00:48;0.80;;;0.80;;
47413;SDS011;33163;0.000;0.000;2023-06-04T03:03:14;0.70;;;0.70;;
47413;SDS011;33163;0.000;0.000;2023-06-04T03:05:41;0.93;;;0.80;;
47413;SDS011;33163;0.000;0.000;2023-06-04T03:08:08;1.17;;;0.90;;
47413;SDS011;33163;0.000;0.000;2023-06-04T03:10:35;0.88;;;0.77;;
47413;SDS011;33163;0.000;0.000;2023-06-04T03:13:02;2.08;;;0.82;;
47413;SDS011;33163;0.000;0.000;2023-06-04T03:15:29;1.25;;;0.70;;
47413;SDS011;33163;0.000;0.000;2023-06-04T03:17:57;1.08;;;0.80;;
47413;SDS011;33163;0.000;0.000;2023-06-04T03:20:24;0.68;;;0.68;;
47413;SDS011;33163;0.000;0.000;2023-06-04T03:22:51;3.63;;;1.00;;
47413;SDS011;33163;0.000;0.000;2023-06-04T03:25:18;0.80;;;0.70;;
47413;SDS011;33163;0.000;0.000;2023-06-04T03:27:45;0.85;;;0.70;;
47413;SDS011;33163;0.000;0.000;2023-06-04T03:30:11;1.25;;;0.90;;
47413;SDS011;33163;0.000;0.000;2023-06-04T03:32:38;0.82;;;0.80;;
47413;SDS011;33163;0.000;0.000;2023-06-04T03:35:07;1.20;;;0.70;;
47413;SDS011;33163;0.000;0.000;2023-06-04T03:37:34;0.95;;;0.85;;
47413;SDS011;33163;0.000;0.000;2023-06-04T03:40:01;0.70;;;0.60;;
47413;SDS011;33163;0.000;0.000;2023-06-04T03:42:29;1.17;;;0.80;;
47413;SDS011;33163;0.000;0.000;2023-06-04T03:44:55;4.35;;;1.02;;
47413;SDS011;33163;0.000;0.000;2023-06-04T03:47:23;0.75;;;0.70;;
47413;SDS011;33163;0.000;0.000;2023-06-04T03:49:49;2.20;;;0.90;;
47413;SDS011;33163;0.000;0.000;2023-06-04T03:52:18;0.75;;;0.68;;
47413;SDS011;33163;0.000;0.000;2023-06-04T03:54:44;2.88;;;0.90;;
47413;SDS011;33163;0.000;0.000;2023-06-04T03:57:11;1.10;;;0.82;;
47413;SDS011;33163;0.000;0.000;2023-06-04T03:59:38;0.75;;;0.70;;
47413;SDS011;33163;0.000;0.000;2023-06-04T04:02:04;0.60;;;0.60;;
47413;SDS011;33163;0.000;0.000;2023-06-04T04:04:31;1.23;;;1.00;;
47413;SDS011;33163;0.000;0.000;2023-06-04T04:06:58;1.98;;;0.82;;
47413;SDS011;33163;0.000;0.000;2023-06-04T04:09:27;1.00;;;0.70;;
47413;SDS011;33163;0.000;0.000;2023-06-04T04:11:54;1.45;;;0.90;;
47413;SDS011;33163;0.000;0.000;2023-06-04T04:14:20;1.00;;;0.82;;
47413;SDS011;33163;0.000;0.000;2023-06-04T04:16:47;0.85;;;0.70;;
47413;SDS011;33163;0.000;0.000;2023-06-04T04:19:14;1.52;;;1.20;;
47413;SDS011;33163;0.000;0.000;2023-06-04T04:21:41;1.83;;;0.80;;
47413;SDS011;33163;0.000;0.000;2023-06-04T04:24:08;1.02;;;0.75;;
47413;SDS011;33163;0.000;0.000;2023-06-04T04:26:36;1.70;;;0.80;;
47413;SDS011;33163;0.000;0.000;2023-06-04T04:29:03;1.00;;;0.77;;
47413;SDS011;33163;0.000;0.000;2023-06-04T04:31:33;1.20;;;0.90;;
47413;SDS011;33163;0.000;0.000;2023-06-04T04:34:01;4.25;;;1.00;;
47413;SDS011;33163;0.000;0.000;2023-06-04T04:36:33;0.90;;;0.63;;
47413;SDS011;33163;0.000;0.000;2023-06-04T04:39:01;0.85;;;0.70;;
47413;SDS011;33163;0.000;0.000;2023-06-04T04:41:28;2.30;;;0.95;;
47413;SDS011;33163;0.000;0.000;2023-06-04T04:44:02;1.33;;;0.80;;
47413;SDS011;33163;0.000;0.000;2023-06-04T04:46:29;0.70;;;0.70;;
47413;SDS011;33163;0.000;0.000;2023-06-04T04:48:56;1.00;;;0.90;;
47413;SDS011;33163;0.000;0.000;2023-06-04T04:51:22;1.27;;;0.80;;
47413;SDS011;33163;0.000;0.000;2023-06-04T04:53:49;2.08;;;1.00;;
47413;SDS011;33163;0.000;0.000;2023-06-04T04:56:16;3.03;;;0.75;;
47413;SDS011;33163;0.000;0.000;2023-06-04T04:58:42;3.50;;;1.23;;
47413;SDS011;33163;0.000;0.000;2023-06-04T05:01:11;1.65;;;0.88;;
47413;SDS011;33163;0.000;0.000;2023-06-04T05:03:37;2.25;;;0.63;;
47413;SDS011;33163;0.000;0.000;2023-06-04T05:06:04;0.88;;;0.88;;
47413;SDS011;33163;0.000;0.000;2023-06-04T05:08:31;2.30;;;0.80;;
47413;SDS011;33163;0.000;0.000;2023-06-04T05:10:58;2.42;;;0.75;;
47413;SDS011;33163;0.000;0.000;2023-06-04T05:13:25;0.90;;;0.70;;
47413;SDS011;33163;0.000;0.000;2023-06-04T05:15:52;1.88;;;0.80;;
47413;SDS011;33163;0.000;0.000;2023-06-04T05:18:20;1.15;;;1.00;;
47413;SDS011;33163;0.000;0.000;2023-06-04T05:20:46;0.70;;;0.70;;
47413;SDS011;33163;0.000;0.000;2023-06-04T05:23:14;1.20;;;0.90;;
47413;SDS011;33163;0.000;0.000;2023-06-04T05:25:40;1.08;;;0.85;;
47413;SDS011;33163;0.000;0.000;2023-06-04T05:28:07;1.30;;;0.80;;
47413;SDS011;33163;0.000;0.000;2023-06-04T05:30:34;0.90;;;0.75;;
47413;SDS011;33163;0.000;0.000;2023-06-04T05:33:01;1.33;;;0.80;;
47413;SDS011;33163;0.000;0.000;2023-06-04T05:35:29;1.60;;;0.93;;
47413;SDS011;33163;0.000;0.000;2023-06-04T05:37:57;0.65;;;0.65;;
47413;SDS011;33163;0.000;0.000;2023-06-04T05:40:25;0.95;;;0.70;;
47413;SDS011;33163;0.000;0.000;2023-06-04T05:42:52;4.78;;;0.77;;
47413;SDS011;33163;0.000;0.000;2023-06-04T05:45:19;0.63;;;0.60;;
47413;SDS011;33163;0.000;0.000;2023-06-04T05:47:45;1.45;;;0.70;;
47413;SDS011;33163;0.000;0.000;2023-06-04T05:50:12;0.60;;;0.60;;
47413;SDS011;33163;0.000;0.000;2023-06-04T05:52:40;1.25;;;1.08;;
47413;SDS011;33163;0.000;0.000;2023-06-04T05:55:07;1.67;;;0.68;;
47413;SDS011;33163;0.000;0.000;2023-06-04T05:57:35;0.95;;;0.88;;
47413;SDS011;33163;0.000;0.000;2023-06-04T06:00:02;0.98;;;0.82;;
47413;SDS011;33163;0.000;0.000;2023-06-04T06:02:33;1.92;;;1.10;;
47413;SDS011;33163;0.000;0.000;2023-06-04T06:05:00;1.15;;;0.70;;
47413;SDS011;33163;0.000;0.000;2023-06-04T06:07:27;0.98;;;0.82;;
47413;SDS011;33163;0.000;0.000;2023-06-04T06:09:55;1.52;;;0.88;;
47413;SDS011;33163;0.000;0.000;2023-06-04T06:12:22;3.65;;;1.13;;
47413;SDS011;33163;0.000;0.000;2023-06-04T06:14:48;1.30;;;0.70;;
47413;SDS011;33163;0.000;0.000;2023-06-04T06:17:15;0.82;;;0.60;;
47413;SDS011;33163;0.000;0.000;2023-06-04T06:19:42;1.70;;;0.70;;
47413;SDS011;33163;0.000;0.000;2023-06-04T06:22:08;2.58;;;0.80;;
47413;SDS011;33163;0.000;0.000;2023-06-04T06:24:35;1.63;;;0.70;;
47413;SDS011;33163;0.000;0.000;2023-06-04T06:27:03;3.15;;;1.13;;
47413;SDS011;33163;0.000;0.000;2023-06-04T06:29:31;1.20;;;0.90;;
47413;SDS011;33163;0.000;0.000;2023-06-04T06:31:58;1.98;;;0.88;;
47413;SDS011;33163;0.000;0.000;2023-06-04T06:34:25;1.27;;;1.10;;
47413;SDS011;33163;0.000;0.000;2023-06-04T06:36:52;1.33;;;0.90;;
47413;SDS011;33163;0.000;0.000;2023-06-04T06:39:19;5.22;;;1.10;;
47413;SDS011;33163;0.000;0.000;2023-06-04T06:41:46;0.82;;;0.75;;
47413;SDS011;33163;0.000;0.000;2023-06-04T06:44:14;1.35;;;0.80;;
47413;SDS011;33163;0.000;0.000;2023-06-04T06:46:41;2.45;;;1.25;;
47413;SDS011;33163;0.000;0.000;2023-06-04T06:49:07;3.33;;;1.00;;
47413;SDS011;33163;0.000;0.000;2023-06-04T06:51:34;1.50;;;0.90;;
47413;SDS011;33163;0.000;0.000;2023-06-04T06:54:01;1.50;;;0.80;;
47413;SDS011;33163;0.000;0.000;2023-06-04T06:56:27;2.08;;;1.00;;
47413;SDS011;33163;0.000;0.000;2023-06-04T06:58:55;2.97;;;0.77;;
47413;SDS011;33163;0.000;0.000;2023-06-04T07:01:23;2.10;;;0.90;;
47413;SDS011;33163;0.000;0.000;2023-06-04T07:03:50;1.58;;;1.02;;
47413;SDS011;33163;0.000;0.000;2023-06-04T07:06:17;1.45;;;1.13;;
47413;SDS011;33163;0.000;0.000;2023-06-04T07:08:44;2.67;;;0.70;;
47413;SDS011;33163;0.000;0.000;2023-06-04T07:11:13;2.80;;;1.20;;
47413;SDS011;33163;0.000;0.000;2023-06-04T07:13:41;0.75;;;0.75;;
47413;SDS011;33163;0.000;0.000;2023-06-04T07:16:08;1.85;;;0.75;;
47413;SDS011;33163;0.000;0.000;2023-06-04T07:18:36;2.63;;;1.00;;
47413;SDS011;33163;0.000;0.000;2023-06-04T07:21:03;0.65;;;0.63;;
47413;SDS011;33163;0.000;0.000;2023-06-04T07:23:30;0.90;;;0.82;;
47413;SDS011;33163;0.000;0.000;2023-06-04T07:25:57;1.95;;;1.20;;
47413;SDS011;33163;0.000;0.000;2023-06-04T07:28:23;2.45;;;1.13;;
47413;SDS011;33163;0.000;0.000;2023-06-04T07:30:50;2.42;;;1.08;;
47413;SDS011;33163;0.000;0.000;2023-06-04T07:33:17;4.20;;;1.20;;
47413;SDS011;33163;0.000;0.000;2023-06-04T07:35:45;4.30;;;1.23;;
47413;SDS011;33163;0.000;0.000;2023-06-04T07:38:12;3.25;;;1.15;;
47413;SDS011;33163;0.000;0.000;2023-06-04T07:40:39;5.75;;;1.50;;
47413;SDS011;33163;0.000;0.000;2023-06-04T07:43:06;3.63;;;1.33;;
47413;SDS011;33163;0.000;0.000;2023-06-04T07:45:32;3.22;;;1.15;;
47413;SDS011;33163;0.000;0.000;2023-06-04T07:47:59;3.42;;;1.30;;
47413;SDS011;33163;0.000;0.000;2023-06-04T07:50:26;8.38;;;1.23;;
47413;SDS011;33163;0.000;0.000;2023-06-04T07:52:54;2.97;;;1.13;;
47413;SDS011;33163;0.000;0.000;2023-06-04T07:55:21;5.60;;;1.10;;
47413;SDS011;33163;0.000;0.000;2023-06-04T07:57:47;6.05;;;1.42;;
47413;SDS011;33163;0.000;0.000;2023-06-04T08:00:14;2.92;;;1.45;;
47413;SDS011;33163;0.000;0.000;2023-06-04T08:02:42;3.00;;;1.38;;
47413;SDS011;33163;0.000;0.000;2023-06-04T08:05:09;1.70;;;1.10;;
47413;SDS011;33163;0.000;0.000;2023-06-04T08:07:38;2.67;;;1.10;;
47413;SDS011;33163;0.000;0.000;2023-06-04T08:10:07;9.20;;;1.52;;
47413;SDS011;33163;0.000;0.000;2023-06-04T08:12:34;2.65;;;1.08;;
47413;SDS011;33163;0.000;0.000;2023-06-04T08:15:01;6.07;;;1.08;;
47413;SDS011;33163;0.000;0.000;2023-06-04T08:17:30;4.32;;;1.20;;
47413;SDS011;33163;0.000;0.000;2023-06-04T08:19:57;5.70;;;0.90;;
47413;SDS011;33163;0.000;0.000;2023-06-04T08:22:24;2.92;;;0.80;;
47413;SDS011;33163;0.000;0.000;2023-06-04T08:24:50;4.80;;;1.13;;
47413;SDS011;33163;0.000;0.000;2023-06-04T08:27:18;3.70;;;1.13;;
47413;SDS011;33163;0.000;0.000;2023-06-04T08:29:45;1.95;;;0.85;;
47413;SDS011;33163;0.000;0.000;2023-06-04T08:32:13;2.65;;;0.93;;
47413;SDS011;33163;0.000;0.000;2023-06-04T08:34:39;1.58;;;1.00;;
47413;SDS011;33163;0.000;0.000;2023-06-04T08:37:06;2.25;;;1.20;;
47413;SDS011;33163;0.000;0.000;2023-06-04T08:39:33;3.03;;;1.20;;
47413;SDS011;33163;0.000;0.000;2023-06-04T08:42:00;3.83;;;0.98;;
47413;SDS011;33163;0.000;0.000;2023-06-04T08:44:31;1.95;;;1.42;;
47413;SDS011;33163;0.000;0.000;2023-06-04T08:47:01;1.70;;;0.88;;
47413;SDS011;33163;0.000;0.000;2023-06-04T08:49:29;2.65;;;1.00;;
47413;SDS011;33163;0.000;0.000;2023-06-04T08:52:01;3.53;;;0.80;;
47413;SDS011;33163;0.000;0.000;2023-06-04T08:54:28;3.00;;;1.17;;
47413;SDS011;33163;0.000;0.000;2023-06-04T08:56:55;5.80;;;1.10;;
47413;SDS011;33163;0.000;0.000;2023-06-04T08:59:23;2.75;;;0.90;;
47413;SDS011;33163;0.000;0.000;2023-06-04T09:01:52;3.25;;;0.80;;
47413;SDS011;33163;0.000;0.000;2023-06-04T09:04:20;1.63;;;0.98;;
47413;SDS011;33163;0.000;0.000;2023-06-04T09:06:47;4.43;;;1.33;;
47413;SDS011;33163;0.000;0.000;2023-06-04T09:09:15;2.70;;;1.20;;
47413;SDS011;33163;0.000;0.000;2023-06-04T09:11:45;4.30;;;1.00;;
47413;SDS011;33163;0.000;0.000;2023-06-04T09:14:16;1.38;;;0.93;;
47413;SDS011;33163;0.000;0.000;2023-06-04T09:16:44;1.83;;;1.27;;
47413;SDS011;33163;0.000;0.000;2023-06-04T09:19:13;3.95;;;1.13;;
47413;SDS011;33163;0.000;0.000;2023-06-04T09:21:49;2.00;;;1.10;;
47413;SDS011;33163;0.000;0.000;2023-06-04T09:24:17;3.65;;;0.95;;
47413;SDS011;33163;0.000;0.000;2023-06-04T09:26:44;1.55;;;1.08;;
47413;SDS011;33163;0.000;0.000;2023-06-04T09:29:11;4.13;;;0.90;;
47413;SDS011;33163;0.000;0.000;2023-06-04T09:31:38;3.38;;;1.20;;
47413;SDS011;33163;0.000;0.000;2023-06-04T09:34:05;2.17;;;1.33;;
47413;SDS011;33163;0.000;0.000;2023-06-04T09:36:33;1.77;;;0.80;;
47413;SDS011;33163;0.000;0.000;2023-06-04T09:39:01;1.05;;;0.80;;
47413;SDS011;33163;0.000;0.000;2023-06-04T09:41:28;2.30;;;1.00;;
47413;SDS011;33163;0.000;0.000;2023-06-04T09:43:59;1.80;;;1.08;;
47413;SDS011;33163;0.000;0.000;2023-06-04T09:46:27;2.63;;;1.10;;
47413;SDS011;33163;0.000;0.000;2023-06-04T09:48:59;1.80;;;1.15;;
47413;SDS011;33163;0.000;0.000;2023-06-04T09:51:26;2.42;;;1.00;;
47413;SDS011;33163;0.000;0.000;2023-06-04T09:53:54;2.03;;;0.80;;
47413;SDS011;33163;0.000;0.000;2023-06-04T09:56:21;3.40;;;1.02;;
47413;SDS011;33163;0.000;0.000;2023-06-04T09:58:49;3.00;;;1.27;;
47413;SDS011;33163;0.000;0.000;2023-06-04T10:01:19;3.92;;;0.98;;
47413;SDS011;33163;0.000;0.000;2023-06-04T10:03:47;3.33;;;1.30;;
47413;SDS011;33163;0.000;0.000;2023-06-04T10:06:16;2.97;;;1.30;;
47413;SDS011;33163;0.000;0.000;2023-06-04T10:08:45;3.17;;;0.82;;
47413;SDS011;33163;0.000;0.000;2023-06-04T10:11:16;1.05;;;0.70;;
47413;SDS011;33163;0.000;0.000;2023-06-04T10:13:50;2.63;;;1.20;;
47413;SDS011;33163;0.000;0.000;2023-06-04T10:16:19;1.70;;;0.80;;
47413;SDS011;33163;0.000;0.000;2023-06-04T10:18:46;1.60;;;0.88;;
47413;SDS011;33163;0.000;0.000;2023-06-04T10:21:14;2.08;;;0.98;;
47413;SDS011;33163;0.000;0.000;2023-06-04T10:23:43;2.00;;;0.90;;
47413;SDS011;33163;0.000;0.000;2023-06-04T10:26:13;4.15;;;1.15;;
47413;SDS011;33163;0.000;0.000;2023-06-04T10:28:42;2.00;;;1.10;;
47413;SDS011;33163;0.000;0.000;2023-06-04T10:31:09;2.08;;;1.00;;
47413;SDS011;33163;0.000;0.000;2023-06-04T10:33:36;3.38;;;0.90;;
47413;SDS011;33163;0.000;0.000;2023-06-04T10:36:15;5.13;;;1.17;;
47413;SDS011;33163;0.000;0.000;2023-06-04T10:38:46;3.80;;;1.15;;
47413;SDS011;33163;0.000;0.000;2023-06-04T10:41:14;1.70;;;0.90;;
47413;SDS011;33163;0.000;0.000;2023-06-04T10:43:43;3.50;;;1.10;;
47413;SDS011;33163;0.000;0.000;2023-06-04T10:46:11;4.32;;;1.15;;
47413;SDS011;33163;0.000;0.000;2023-06-04T10:48:48;4.93;;;1.13;;
47413;SDS011;33163;0.000;0.000;2023-06-04T10:51:16;1.85;;;1.10;;
47413;SDS011;33163;0.000;0.000;2023-06-04T10:53:55;5.40;;;1.00;;
47413;SDS011;33163;0.000;0.000;2023-06-04T10:56:24;6.13;;;1.00;;
47413;SDS011;33163;0.000;0.000;2023-06-04T10:58:53;3.50;;;0.85;;
47413;SDS011;33163;0.000;0.000;2023-06-04T11:01:23;2.15;;;0.90;;
47413;SDS011;33163;0.000;0.000;2023-06-04T11:03:51;4.32;;;0.95;;
47413;SDS011;33163;0.000;0.000;2023-06-04T11:06:17;1.17;;;1.08;;
47413;SDS011;33163;0.000;0.000;2023-06-04T11:08:46;2.60;;;1.40;;
47413;SDS011;33163;0.000;0.000;2023-06-04T11:11:13;9.43;;;1.85;;
47413;SDS011;33163;0.000;0.000;2023-06-04T11:13:41;6.43;;;1.13;;
47413;SDS011;33163;0.000;0.000;2023-06-04T11:16:16;1.63;;;0.80;;
47413;SDS011;33163;0.000;0.000;2023-06-04T11:18:44;5.47;;;1.45;;
47413;SDS011;33163;0.000;0.000;2023-06-04T11:21:20;5.82;;;0.80;;
47413;SDS011;33163;0.000;0.000;2023-06-04T11:23:47;2.55;;;1.40;;
47413;SDS011;33163;0.000;0.000;2023-06-04T11:26:14;1.85;;;1.00;;
47413;SDS011;33163;0.000;0.000;2023-06-04T11:28:42;5.95;;;1.50;;
47413;SDS011;33163;0.000;0.000;2023-06-04T11:31:10;9.20;;;1.80;;
47413;SDS011;33163;0.000;0.000;2023-06-04T11:33:45;5.38;;;1.10;;
47413;SDS011;33163;0.000;0.000;2023-06-04T11:36:21;2.97;;;1.48;;
47413;SDS011;33163;0.000;0.000;2023-06-04T11:38:53;5.95;;;1.10;;
47413;SDS011;33163;0.000;0.000;2023-06-04T11:41:21;10.73;;;1.27;;
47413;SDS011;33163;0.000;0.000;2023-06-04T11:43:48;5.90;;;1.30;;
47413;SDS011;33163;0.000;0.000;2023-06-04T11:46:14;3.05;;;1.10;;
47413;SDS011;33163;0.000;0.000;2023-06-04T11:48:42;5.22;;;1.33;;
47413;SDS011;33163;0.000;0.000;2023-06-04T11:51:10;3.88;;;1.40;;
47413;SDS011;33163;0.000;0.000;2023-06-04T11:53:38;1.83;;;1.00;;
47413;SDS011;33163;0.000;0.000;2023-06-04T11:56:05;6.68;;;1.08;;
47413;SDS011;33163;0.000;0.000;2023-06-04T11:58:32;4.32;;;1.30;;
47413;SDS011;33163;0.000;0.000;2023-06-04T12:01:00;2.55;;;0.70;;
47413;SDS011;33163;0.000;0.000;2023-06-04T12:03:36;7.70;;;1.40;;
47413;SDS011;33163;0.000;0.000;2023-06-04T12:06:14;2.88;;;0.95;;
47413;SDS011;33163;0.000;0.000;2023-06-04T12:08:46;4.63;;;1.13;;
47413;SDS011;33163;0.000;0.000;2023-06-04T12:11:22;2.80;;;1.20;;
47413;SDS011;33163;0.000;0.000;2023-06-04T12:13:54;5.47;;;1.20;;
47413;SDS011;33163;0.000;0.000;2023-06-04T12:16:21;4.72;;;1.50;;
47413;SDS011;33163;0.000;0.000;2023-06-04T12:18:48;2.97;;;1.23;;
47413;SDS011;33163;0.000;0.000;2023-06-04T12:21:20;5.32;;;1.45;;
47413;SDS011;33163;0.000;0.000;2023-06-04T12:23:51;6.25;;;1.83;;
47413;SDS011;33163;0.000;0.000;2023-06-04T12:26:22;7.63;;;1.88;;
47413;SDS011;33163;0.000;0.000;2023-06-04T12:29:00;11.25;;;2.20;;
47413;SDS011;33163;0.000;0.000;2023-06-04T12:31:27;10.70;;;1.52;;
47413;SDS011;33163;0.000;0.000;2023-06-04T12:33:57;7.40;;;1.90;;
47413;SDS011;33163;0.000;0.000;2023-06-04T12:36:26;5.88;;;1.85;;
47413;SDS011;33163;0.000;0.000;2023-06-04T12:38:53;7.28;;;1.80;;
47413;SDS011;33163;0.000;0.000;2023-06-04T12:41:21;6.93;;;1.70;;
47413;SDS011;33163;0.000;0.000;2023-06-04T12:43:48;13.23;;;1.73;;
47413;SDS011;33163;0.000;0.000;2023-06-04T12:46:15;8.77;;;1.90;;
47413;SDS011;33163;0.000;0.000;2023-06-04T12:48:42;6.55;;;1.70;;
47413;SDS011;33163;0.000;0.000;2023-06-04T12:51:09;4.13;;;1.10;;
47413;SDS011;33163;0.000;0.000;2023-06-04T12:53:39;5.97;;;1.50;;
47413;SDS011;33163;0.000;0.000;2023-06-04T12:56:06;9.32;;;1.55;;
47413;SDS011;33163;0.000;0.000;2023-06-04T12:58:33;3.42;;;1.55;;
47413;SDS011;33163;0.000;0.000;2023-06-04T13:01:00;8.25;;;1.52;;
47413;SDS011;33163;0.000;0.000;2023-06-04T13:03:29;3.65;;;1.40;;
47413;SDS011;33163;0.000;0.000;2023-06-04T13:05:56;5.00;;;1.83;;
47413;SDS011;33163;0.000;0.000;2023-06-04T13:08:23;5.45;;;1.38;;
47413;SDS011;33163;0.000;0.000;2023-06-04T13:10:51;4.35;;;1.55;;
47413;SDS011;33163;0.000;0.000;2023-06-04T13:13:19;7.07;;;1.60;;
47413;SDS011;33163;0.000;0.000;2023-06-04T13:15:46;6.28;;;1.63;;
47413;SDS011;33163;0.000;0.000;2023-06-04T13:18:13;8.73;;;1.50;;
47413;SDS011;33163;0.000;0.000;2023-06-04T13:20:40;4.70;;;1.60;;
47413;SDS011;33163;0.000;0.000;2023-06-04T13:23:07;5.43;;;1.52;;
47413;SDS011;33163;0.000;0.000;2023-06-04T13:25:34;2.88;;;1.20;;
47413;SDS011;33163;0.000;0.000;2023-06-04T13:28:02;4.65;;;1.30;;
47413;SDS011;33163;0.000;0.000;2023-06-04T13:30:30;4.47;;;1.63;;
47413;SDS011;33163;0.000;0.000;2023-06-04T13:32:57;4.88;;;1.27;;
47413;SDS011;33163;0.000;0.000;2023-06-04T13:35:24;7.20;;;1.30;;
47413;SDS011;33163;0.000;0.000;2023-06-04T13:37:51;4.70;;;1.25;;
47413;SDS011;33163;0.000;0.000;2023-06-04T13:40:17;4.22;;;1.58;;
47413;SDS011;33163;0.000;0.000;2023-06-04T13:42:45;5.25;;;1.55;;
47413;SDS011;33163;0.000;0.000;2023-06-04T13:45:13;4.65;;;1.38;;
47413;SDS011;33163;0.000;0.000;2023-06-04T13:47:41;12.27;;;1.92;;
47413;SDS011;33163;0.000;0.000;2023-06-04T13:50:08;7.57;;;1.63;;
47413;SDS011;33163;0.000;0.000;2023-06-04T13:52:36;6.45;;;2.05;;
47413;SDS011;33163;0.000;0.000;2023-06-04T13:55:03;5.15;;;1.48;;
47413;SDS011;33163;0.000;0.000;2023-06-04T13:57:30;6.28;;;1.45;;
47413;SDS011;33163;0.000;0.000;2023-06-04T13:59:57;5.97;;;1.90;;
47413;SDS011;33163;0.000;0.000;2023-06-04T14:02:25;4.45;;;1.75;;
47413;SDS011;33163;0.000;0.000;2023-06-04T14:04:52;5.55;;;1.67;;
47413;SDS011;33163;0.000;0.000;2023-06-04T14:07:20;6.28;;;1.85;;
47413;SDS011;33163;0.000;0.000;2023-06-04T14:09:46;6.05;;;2.20;;
47413;SDS011;33163;0.000;0.000;2023-06-04T14:12:19;11.55;;;1.90;;
47413;SDS011;33163;0.000;0.000;2023-06-04T14:14:46;10.65;;;1.65;;
47413;SDS011;33163;0.000;0.000;2023-06-04T14:17:12;6.22;;;1.95;;
47413;SDS011;33163;0.000;0.000;2023-06-04T14:19:40;7.60;;;1.65;;
47413;SDS011;33163;0.000;0.000;2023-06-04T14:22:07;6.68;;;2.05;;
47413;SDS011;33163;0.000;0.000;2023-06-04T14:24:35;5.10;;;1.40;;
47413;SDS011;33163;0.000;0.000;2023-06-04T14:27:02;8.93;;;1.98;;
47413;SDS011;33163;0.000;0.000;2023-06-04T14:29:29;13.20;;;2.10;;
47413;SDS011;33163;0.000;0.000;2023-06-04T14:31:55;9.55;;;2.13;;
47413;SDS011;33163;0.000;0.000;2023-06-04T14:34:22;9.13;;;1.75;;
47413;SDS011;33163;0.000;0.000;2023-06-04T14:36:50;10.82;;;2.42;;
47413;SDS011;33163;0.000;0.000;2023-06-04T14:39:17;6.03;;;2.17;;
47413;SDS011;33163;0.000;0.000;2023-06-04T14:41:44;8.35;;;2.05;;
47413;SDS011;33163;0.000;0.000;2023-06-04T14:44:10;10.75;;;2.45;;
47413;SDS011;33163;0.000;0.000;2023-06-04T14:46:37;14.10;;;2.20;;
47413;SDS011;33163;0.000;0.000;2023-06-04T14:49:05;9.15;;;1.95;;
47413;SDS011;33163;0.000;0.000;2023-06-04T14:51:32;11.60;;;2.38;;
47413;SDS011;33163;0.000;0.000;2023-06-04T14:54:00;8.38;;;2.10;;
47413;SDS011;33163;0.000;0.000;2023-06-04T14:56:27;9.60;;;2.60;;
47413;SDS011;33163;0.000;0.000;2023-06-04T14:58:53;6.85;;;2.38;;
47413;SDS011;33163;0.000;0.000;2023-06-04T15:01:20;9.68;;;2.42;;
47413;SDS011;33163;0.000;0.000;2023-06-04T15:03:47;6.78;;;2.30;;